Time;durP1;ratioP1;P1;durP2;ratioP2;P2;SDS_P1;SDS_P2;PMS_P1;PMS_P2;Temp;Humidity;BMP_temperature;BMP_pressure;BME280_temperature;BME280_humidity;BME280_pressure;Samples;Min_cycle;Max_cycle;Signal;HPM_P1;HPM_P2
2022/04/07 00:01:48;;;;;;;1.30;1.20;;;;;;;9.94;94.85;96722.97;5076976;28;20204;-68
2022/04/07 00:04:15;;;;;;;1.33;1.10;;;;;;;9.88;95.13;96726.63;5076026;28;20205;-67
2022/04/07 00:06:41;;;;;;;3.83;1.50;;;;;;;9.83;95.64;96723.91;5076222;28;20228;-67
2022/04/07 00:09:07;;;;;;;1.80;1.30;;;;;;;9.78;96.37;96723.84;5076298;28;20201;-68
2022/04/07 00:11:34;;;;;;;1.13;1.00;;;;;;;9.76;95.46;96712.66;5076181;28;20286;-68
2022/04/07 00:14:00;;;;;;;1.70;1.20;;;;;;;9.73;96.11;96718.47;5076060;28;20220;-68
2022/04/07 00:16:27;;;;;;;1.30;1.20;;;;;;;9.69;96.06;96715.50;5075995;28;20209;-68
2022/04/07 00:18:53;;;;;;;1.20;1.10;;;;;;;9.75;95.48;96716.38;5075715;28;20299;-68
2022/04/07 00:21:25;;;;;;;1.30;1.20;;;;;;;9.71;94.79;96712.59;5076570;28;20204;-68
2022/04/07 00:23:55;;;;;;;1.30;1.20;;;;;;;9.70;94.88;96711.81;5076068;28;20181;-68
2022/04/07 00:26:21;;;;;;;1.57;1.20;;;;;;;9.73;95.29;96710.53;5075823;28;20207;-68
2022/04/07 00:28:47;;;;;;;1.07;1.07;;;;;;;9.63;96.14;96697.91;5075576;28;20211;-68
2022/04/07 00:31:14;;;;;;;1.20;1.10;;;;;;;9.61;96.04;96689.41;5075852;28;20215;-68
2022/04/07 00:33:40;;;;;;;1.30;1.20;;;;;;;9.63;95.86;96689.13;5075767;28;20266;-68
2022/04/07 00:36:07;;;;;;;1.13;1.03;;;;;;;9.73;94.48;96689.28;5075763;28;20204;-68
2022/04/07 00:38:33;;;;;;;1.10;1.10;;;;;;;9.75;94.26;96692.50;5075612;28;20225;-68
2022/04/07 00:40:59;;;;;;;1.10;1.00;;;;;;;9.78;93.77;96692.78;5075756;28;20231;-68
2022/04/07 00:43:34;;;;;;;0.80;0.80;;;;;;;9.83;93.46;96684.09;5075686;28;20203;-68
2022/04/07 00:46:01;;;;;;;1.90;0.97;;;;;;;9.82;93.38;96690.47;5075654;28;20215;-68
2022/04/07 00:48:28;;;;;;;0.90;0.90;;;;;;;9.86;93.58;96688.94;5075582;28;20228;-68
2022/04/07 00:50:55;;;;;;;1.37;0.80;;;;;;;9.89;93.07;96681.25;5075358;28;20299;-68
2022/04/07 00:53:23;;;;;;;1.10;0.90;;;;;;;9.88;93.29;96681.50;5075071;28;20247;-69
2022/04/07 00:55:51;;;;;;;0.80;0.70;;;;;;;9.86;94.42;96675.66;5075442;28;20575;-68
2022/04/07 00:58:19;;;;;;;1.10;0.93;;;;;;;9.82;95.12;96680.63;5075269;28;20588;-68
2022/04/07 01:00:46;;;;;;;1.43;1.10;;;;;;;9.83;95.82;96682.22;5075047;28;20571;-68
2022/04/07 01:03:12;;;;;;;1.60;0.80;;;;;;;9.81;95.36;96675.56;5075314;28;20207;-68
2022/04/07 01:05:39;;;;;;;0.80;0.80;;;;;;;9.79;95.86;96669.72;5075301;28;20571;-68
2022/04/07 01:08:09;;;;;;;1.10;1.10;;;;;;;9.72;96.76;96659.28;5075116;28;20220;-68
2022/04/07 01:10:36;;;;;;;1.03;0.93;;;;;;;9.63;98.43;96649.34;5074892;28;20216;-68
2022/04/07 01:13:03;;;;;;;0.90;0.80;;;;;;;9.51;100.00;96646.81;5074648;28;20311;-68
2022/04/07 01:15:29;;;;;;;1.00;1.00;;;;;;;9.47;99.32;96640.41;5075113;28;20205;-68
2022/04/07 01:17:55;;;;;;;1.97;0.80;;;;;;;9.44;99.89;96645.38;5074708;28;20235;-68
2022/04/07 01:20:22;;;;;;;1.10;0.90;;;;;;;9.39;100.00;96653.28;5074985;28;20205;-68
2022/04/07 01:22:51;;;;;;;0.83;0.83;;;;;;;9.43;100.00;96636.66;5074920;28;20204;-68
2022/04/07 01:25:18;;;;;;;0.90;0.90;;;;;;;9.45;99.79;96646.97;5074569;28;20696;-68
2022/04/07 01:27:48;;;;;;;1.67;1.00;;;;;;;9.48;99.56;96635.88;5074415;28;20707;-68
2022/04/07 01:30:15;;;;;;;1.57;0.77;;;;;;;9.53;98.95;96638.59;5074773;28;20302;-68
2022/04/07 01:32:46;;;;;;;0.60;0.60;;;;;;;9.56;97.63;96630.94;5074625;28;20207;-68
2022/04/07 01:35:14;;;;;;;1.37;0.80;;;;;;;9.59;98.02;96633.13;5074679;28;20556;-68
2022/04/07 01:37:45;;;;;;;0.70;0.70;;;;;;;9.55;97.64;96620.59;5074246;28;20737;-68
2022/04/07 01:40:16;;;;;;;0.70;0.70;;;;;;;9.51;96.93;96619.50;5074625;28;20188;-68
2022/04/07 01:42:45;;;;;;;0.80;0.70;;;;;;;9.37;98.51;96610.31;5074521;28;20195;-68
2022/04/07 01:45:12;;;;;;;0.70;0.67;;;;;;;9.29;99.34;96614.19;5073275;28;20258;-68
2022/04/07 01:47:41;;;;;;;1.53;0.80;;;;;;;9.28;99.58;96611.78;5074368;28;20232;-68
2022/04/07 01:50:09;;;;;;;0.53;0.53;;;;;;;9.24;99.86;96618.59;5074375;28;20204;-68
2022/04/07 01:52:37;;;;;;;1.07;0.90;;;;;;;9.19;100.00;96613.25;5074045;28;20212;-68
2022/04/07 01:55:04;;;;;;;0.70;0.70;;;;;;;9.28;98.87;96619.72;5073856;28;20220;-68
2022/04/07 01:57:32;;;;;;;0.80;0.80;;;;;;;9.28;98.56;96619.72;5074115;28;20224;-68
2022/04/07 02:00:00;;;;;;;1.80;0.80;;;;;;;9.14;100.00;96616.63;5074201;28;20205;-68
2022/04/07 02:02:28;;;;;;;0.87;0.70;;;;;;;9.19;99.56;96607.94;5073636;28;20205;-68
2022/04/07 02:05:08;;;;;;;0.73;0.70;;;;;;;9.30;98.46;96614.97;5074099;28;20211;-68
2022/04/07 02:07:34;;;;;;;0.67;0.60;;;;;;;9.30;98.02;96604.34;5074011;28;20220;-68
2022/04/07 02:10:01;;;;;;;0.70;0.70;;;;;;;9.27;98.91;96607.50;5073710;28;20299;-68
2022/04/07 02:12:29;;;;;;;0.70;0.70;;;;;;;9.33;97.09;96598.56;5074027;28;20201;-68
2022/04/07 02:14:56;;;;;;;0.70;0.70;;;;;;;9.45;95.58;96609.84;5073547;28;20224;-68
2022/04/07 02:17:23;;;;;;;1.53;0.70;;;;;;;9.47;96.57;96597.97;5073873;28;20225;-69
2022/04/07 02:19:51;;;;;;;1.80;0.73;;;;;;;9.36;97.91;96601.53;5073901;28;20200;-69
2022/04/07 02:22:18;;;;;;;0.70;0.70;;;;;;;9.42;96.95;96602.41;5073886;28;20204;-68
2022/04/07 02:24:45;;;;;;;0.80;0.80;;;;;;;9.41;97.33;96593.63;5073832;28;20204;-68
2022/04/07 02:27:12;;;;;;;0.70;0.70;;;;;;;9.42;97.41;96597.09;5073716;28;20225;-68
2022/04/07 02:29:38;;;;;;;1.97;1.00;;;;;;;9.48;96.76;96599.56;5073773;28;20208;-68
2022/04/07 02:32:07;;;;;;;0.80;0.77;;;;;;;9.46;97.13;96592.91;5073712;28;20204;-68
2022/04/07 02:34:33;;;;;;;1.43;0.90;;;;;;;9.48;97.50;96593.44;5073633;28;20231;-68
2022/04/07 02:36:59;;;;;;;0.83;0.70;;;;;;;9.45;98.41;96589.44;5073618;28;20231;-68
2022/04/07 02:39:26;;;;;;;1.23;0.80;;;;;;;9.45;98.91;96589.44;5073609;28;20201;-68
2022/04/07 02:41:53;;;;;;;1.13;0.83;;;;;;;9.49;99.33;96585.25;5074153;28;20209;-68
2022/04/07 02:44:20;;;;;;;0.80;0.80;;;;;;;9.49;97.57;96587.91;5073280;28;20620;-68
2022/04/07 02:46:47;;;;;;;0.97;0.97;;;;;;;9.47;98.04;96591.84;5073529;28;20220;-68
2022/04/07 02:49:13;;;;;;;0.97;0.93;;;;;;;9.45;99.03;96586.78;5073162;28;20692;-68
2022/04/07 02:51:40;;;;;;;0.80;0.80;;;;;;;9.44;99.18;96587.84;5073388;28;20352;-68
2022/04/07 02:54:07;;;;;;;0.90;0.90;;;;;;;9.36;100.00;96575.00;5073405;28;20232;-68
2022/04/07 02:56:33;;;;;;;0.73;0.73;;;;;;;9.32;100.00;96571.25;5073413;28;20215;-68
2022/04/07 02:59:00;;;;;;;1.00;0.80;;;;;;;9.41;95.79;96574.28;5073364;28;20207;-68
2022/04/07 03:01:26;;;;;;;0.70;0.70;;;;;;;9.41;92.70;96572.41;5074220;28;20213;-68
2022/04/07 03:03:55;;;;;;;0.63;0.63;;;;;;;9.35;93.38;96562.00;5073119;28;20211;-68
2022/04/07 03:06:22;;;;;;;0.60;0.60;;;;;;;9.37;90.76;96573.16;5073797;28;20558;-68
2022/04/07 03:08:48;;;;;;;0.70;0.70;;;;;;;9.31;93.08;96568.84;5073197;28;20220;-68
2022/04/07 03:11:14;;;;;;;0.87;0.70;;;;;;;9.20;94.45;96565.28;5072997;28;20219;-68
2022/04/07 03:13:41;;;;;;;0.73;0.73;;;;;;;9.24;90.81;96565.59;5074498;28;20283;-68
2022/04/07 03:16:08;;;;;;;1.10;0.80;;;;;;;9.17;91.84;96559.66;5077327;28;20576;-68
2022/04/07 03:18:36;;;;;;;0.80;0.80;;;;;;;9.18;89.53;96569.19;5077148;28;20224;-68
2022/04/07 03:21:02;;;;;;;0.73;0.73;;;;;;;9.11;91.43;96557.97;5077162;28;20224;-68
2022/04/07 03:23:29;;;;;;;1.37;0.70;;;;;;;9.14;90.54;96562.81;5077493;28;20207;-68
2022/04/07 03:25:55;;;;;;;0.97;0.70;;;;;;;9.17;89.00;96563.09;5076703;28;20208;-68
2022/04/07 03:28:22;;;;;;;0.67;0.67;;;;;;;9.19;88.18;96557.56;5076660;28;20228;-68
2022/04/07 03:30:48;;;;;;;1.73;0.80;;;;;;;9.12;89.74;96555.09;5076924;28;20211;-68
2022/04/07 03:33:14;;;;;;;1.07;0.80;;;;;;;9.18;88.20;96550.63;5076785;28;20210;-68
2022/04/07 03:35:42;;;;;;;0.50;0.50;;;;;;;9.29;86.27;96547.09;5076624;28;20200;-68
2022/04/07 03:38:08;;;;;;;0.67;0.67;;;;;;;9.32;86.18;96536.78;5076455;28;20232;-68
2022/04/07 03:40:35;;;;;;;1.33;0.90;;;;;;;9.33;86.52;96537.59;5076522;28;20205;-68
2022/04/07 03:43:03;;;;;;;0.70;0.70;;;;;;;9.36;85.68;96537.88;5076655;28;20255;-68
2022/04/07 03:45:30;;;;;;;0.93;0.70;;;;;;;9.37;85.46;96538.69;5076213;28;20559;-68
2022/04/07 03:47:57;;;;;;;1.03;0.70;;;;;;;9.29;87.41;96534.63;5076133;28;20227;-68
2022/04/07 03:50:24;;;;;;;0.60;0.60;;;;;;;9.33;85.52;96530.41;5076464;28;20205;-71
2022/04/07 03:52:51;;;;;;;1.20;0.60;;;;;;;9.32;87.25;96522.72;5075971;28;20258;-68
2022/04/07 03:55:18;;;;;;;0.80;0.63;;;;;;;9.22;87.99;96511.97;5076422;28;20228;-68
2022/04/07 03:57:45;;;;;;;1.67;0.70;;;;;;;9.29;86.12;96515.25;5075833;28;20582;-68
2022/04/07 04:00:12;;;;;;;0.60;0.60;;;;;;;9.28;85.99;96516.31;5075833;28;20299;-68
2022/04/07 04:02:39;;;;;;;1.87;0.70;;;;;;;9.31;85.69;96521.09;5075901;28;20204;-69
2022/04/07 04:05:05;;;;;;;1.77;0.67;;;;;;;9.43;84.69;96522.59;5076243;28;20236;-68
2022/04/07 04:07:32;;;;;;;0.70;0.70;;;;;;;9.38;84.77;96503.16;5076044;28;20231;-68
2022/04/07 04:09:59;;;;;;;0.53;0.53;;;;;;;9.41;84.89;96507.97;5076169;28;20296;-68
2022/04/07 04:12:26;;;;;;;0.80;0.70;;;;;;;9.32;86.92;96496.22;5076148;28;20204;-68
2022/04/07 04:14:53;;;;;;;1.67;0.70;;;;;;;9.32;86.22;96483.72;5075916;28;20228;-67
2022/04/07 04:17:19;;;;;;;1.37;0.70;;;;;;;9.33;84.88;96485.34;5075890;28;20263;-68
2022/04/07 04:19:46;;;;;;;0.80;0.80;;;;;;;9.34;84.88;96480.84;5075956;28;20216;-67
2022/04/07 04:22:13;;;;;;;0.80;0.57;;;;;;;9.24;85.85;96475.44;5075690;28;20213;-68
2022/04/07 04:24:39;;;;;;;0.87;0.67;;;;;;;9.27;84.90;96474.91;5075129;28;20287;-68
2022/04/07 04:27:06;;;;;;;0.80;0.77;;;;;;;9.23;85.45;96468.53;5075600;28;20231;-68
2022/04/07 04:29:33;;;;;;;0.60;0.50;;;;;;;9.29;84.44;96467.53;5075940;28;20231;-68
2022/04/07 04:31:59;;;;;;;1.10;0.80;;;;;;;9.36;83.56;96468.13;5075755;28;20214;-68
2022/04/07 04:34:25;;;;;;;1.20;0.80;;;;;;;9.29;85.09;96472.84;5075663;28;20220;-68
2022/04/07 04:36:52;;;;;;;0.77;0.77;;;;;;;9.33;83.81;96479.25;5075559;28;20582;-68
2022/04/07 04:39:19;;;;;;;0.83;0.80;;;;;;;9.40;83.71;96469.22;5075142;28;20667;-68
2022/04/07 04:41:45;;;;;;;1.20;0.57;;;;;;;9.37;83.13;96477.69;5074885;28;20220;-67
2022/04/07 04:44:11;;;;;;;0.60;0.60;;;;;;;9.41;83.34;96476.16;5074705;28;20205;-68
2022/04/07 04:46:38;;;;;;;2.77;0.77;;;;;;;9.42;82.65;96465.28;5074932;28;20224;-68
2022/04/07 04:49:04;;;;;;;1.33;0.73;;;;;;;9.43;82.78;96463.44;5075736;28;20212;-68
2022/04/07 04:51:30;;;;;;;0.70;0.70;;;;;;;9.58;80.77;96482.97;5074967;28;20212;-68
2022/04/07 04:53:57;;;;;;;0.60;0.60;;;;;;;9.64;80.51;96479.28;5075661;28;20209;-67
2022/04/07 04:56:23;;;;;;;0.70;0.70;;;;;;;9.61;80.28;96457.78;5074792;28;20212;-67
2022/04/07 04:58:49;;;;;;;1.27;0.60;;;;;;;9.61;80.01;96460.44;5074778;28;20674;-68
2022/04/07 05:01:16;;;;;;;0.80;0.70;;;;;;;9.70;79.74;96459.72;5074769;28;20204;-68
2022/04/07 05:03:42;;;;;;;0.70;0.70;;;;;;;9.66;80.66;96463.94;5074525;28;20216;-68
2022/04/07 05:06:09;;;;;;;1.40;0.80;;;;;;;9.68;80.43;96461.03;5074441;28;20205;-68
2022/04/07 05:08:35;;;;;;;0.70;0.70;;;;;;;9.68;80.63;96445.13;5074535;28;20240;-68
2022/04/07 05:11:01;;;;;;;0.50;0.50;;;;;;;9.66;80.77;96449.88;5074539;28;20208;-68
2022/04/07 05:13:28;;;;;;;0.73;0.60;;;;;;;9.57;82.81;96440.75;5074672;28;20205;-68
2022/04/07 05:15:54;;;;;;;2.10;0.57;;;;;;;9.46;83.39;96447.03;5073883;28;20232;-68
2022/04/07 05:18:20;;;;;;;0.97;0.50;;;;;;;9.45;84.97;96448.06;5073938;28;20224;-68
2022/04/07 05:20:47;;;;;;;0.90;0.70;;;;;;;9.33;84.88;96445.56;5074413;28;20207;-69
2022/04/07 05:23:13;;;;;;;0.60;0.60;;;;;;;9.39;84.33;96447.22;5073853;28;20209;-69
2022/04/07 05:25:39;;;;;;;2.30;0.60;;;;;;;9.34;85.94;96449.03;5074139;28;20200;-68
2022/04/07 05:28:06;;;;;;;0.50;0.50;;;;;;;9.34;85.49;96441.06;5073831;28;20710;-68
2022/04/07 05:30:33;;;;;;;0.50;0.50;;;;;;;9.31;85.77;96457.47;5073984;28;20216;-67
2022/04/07 05:32:59;;;;;;;1.07;0.60;;;;;;;9.35;85.73;96445.31;5073596;28;20216;-68
2022/04/07 05:35:28;;;;;;;0.50;0.50;;;;;;;9.41;87.40;96437.16;5073321;28;20230;-68
2022/04/07 05:38:02;;;;;;;2.03;0.70;;;;;;;9.54;84.50;96439.41;5073466;28;20278;-67
2022/04/07 05:40:29;;;;;;;0.87;0.63;;;;;;;9.52;84.62;96443.38;5073681;28;20188;-68
2022/04/07 05:42:56;;;;;;;0.60;0.60;;;;;;;9.57;84.99;96438.09;5073615;28;20212;-68
2022/04/07 05:45:23;;;;;;;1.50;0.77;;;;;;;9.61;83.06;96425.94;5073608;28;20207;-68
2022/04/07 05:47:49;;;;;;;0.53;0.53;;;;;;;9.62;82.81;96427.53;5073663;28;20228;-68
2022/04/07 05:50:17;;;;;;;0.67;0.50;;;;;;;9.64;83.13;96414.84;5073606;28;20206;-68
2022/04/07 05:52:43;;;;;;;0.70;0.50;;;;;;;9.58;83.65;96423.78;5072996;28;20709;-67
2022/04/07 05:55:10;;;;;;;1.47;0.50;;;;;;;9.70;81.24;96408.50;5073373;28;20253;-67
2022/04/07 05:57:36;;;;;;;0.70;0.53;;;;;;;9.79;81.31;96407.81;5073543;28;20235;-67
2022/04/07 06:00:10;;;;;;;0.40;0.40;;;;;;;9.93;82.12;96401.00;5073721;28;20211;-68
2022/04/07 06:02:37;;;;;;;1.33;0.60;;;;;;;10.15;81.10;96395.59;5073187;28;20691;-67
2022/04/07 06:05:03;;;;;;;1.43;0.50;;;;;;;10.34;78.42;96386.16;5073155;28;20291;-67
2022/04/07 06:07:29;;;;;;;0.40;0.40;;;;;;;10.33;76.79;96379.25;5072888;28;20229;-67
2022/04/07 06:09:56;;;;;;;0.40;0.37;;;;;;;10.35;77.60;96363.84;5073360;28;20215;-67
2022/04/07 06:12:22;;;;;;;1.27;0.50;;;;;;;10.40;76.65;96358.56;5073107;28;20307;-68
2022/04/07 06:14:49;;;;;;;0.87;0.60;;;;;;;10.41;77.01;96352.22;5073032;28;20254;-67
2022/04/07 06:17:15;;;;;;;0.50;0.50;;;;;;;10.50;76.04;96326.75;5072472;28;20220;-68
2022/04/07 06:19:42;;;;;;;0.30;0.30;;;;;;;10.57;74.53;96338.72;5073220;28;20211;-68
2022/04/07 06:22:08;;;;;;;0.53;0.40;;;;;;;10.65;75.60;96334.75;5073256;28;20208;-68
2022/04/07 06:24:35;;;;;;;0.50;0.50;;;;;;;10.64;74.89;96336.59;5073406;28;20295;-68
2022/04/07 06:27:01;;;;;;;0.53;0.40;;;;;;;10.65;74.15;96350.69;5073136;28;20224;-68
2022/04/07 06:29:28;;;;;;;0.50;0.30;;;;;;;10.65;72.94;96351.50;5073026;28;20253;-71
2022/04/07 06:31:54;;;;;;;0.93;0.47;;;;;;;10.61;73.46;96352.28;5072693;28;20201;-71
2022/04/07 06:34:21;;;;;;;1.07;0.40;;;;;;;10.61;74.29;96354.94;5073178;28;20200;-71
2022/04/07 06:36:48;;;;;;;0.73;0.40;;;;;;;10.63;74.29;96345.66;5072836;28;20229;-71
2022/04/07 06:39:15;;;;;;;0.40;0.40;;;;;;;10.69;72.28;96347.25;5073089;28;20208;-70
2022/04/07 06:41:41;;;;;;;0.40;0.40;;;;;;;10.63;74.16;96353.63;5072861;28;20212;-70
2022/04/07 06:44:07;;;;;;;0.40;0.40;;;;;;;10.62;72.83;96332.63;5072908;28;20215;-70
2022/04/07 06:46:34;;;;;;;0.37;0.30;;;;;;;10.69;71.72;96336.63;5072766;28;20236;-71
2022/04/07 06:49:00;;;;;;;0.40;0.40;;;;;;;10.66;74.02;96342.47;5072610;28;20212;-71
2022/04/07 06:51:28;;;;;;;1.30;0.50;;;;;;;10.69;73.25;96335.84;5072362;28;20219;-70
2022/04/07 06:53:54;;;;;;;0.50;0.50;;;;;;;10.62;74.07;96330.75;5072504;28;20565;-71
2022/04/07 06:56:21;;;;;;;1.40;0.60;;;;;;;10.64;72.99;96338.47;5073051;28;20224;-71
2022/04/07 06:58:47;;;;;;;1.80;0.50;;;;;;;10.68;72.71;96342.22;5072446;28;20205;-71
2022/04/07 07:01:13;;;;;;;0.30;0.30;;;;;;;10.74;72.75;96339.31;5072363;28;20216;-70
2022/04/07 07:03:40;;;;;;;0.47;0.27;;;;;;;10.76;71.76;96344.34;5072302;28;20224;-70
2022/04/07 07:06:06;;;;;;;2.73;0.50;;;;;;;10.81;71.31;96337.19;5072416;28;20201;-70
2022/04/07 07:08:32;;;;;;;0.30;0.30;;;;;;;10.89;70.71;96318.09;5064652;28;20220;-71
2022/04/07 07:10:59;;;;;;;2.10;0.60;;;;;;;10.97;71.49;96295.50;5052408;28;20202;-71
2022/04/07 07:13:25;;;;;;;0.43;0.43;;;;;;;10.93;71.75;96313.84;5052101;28;20239;-71
2022/04/07 07:15:52;;;;;;;0.60;0.40;;;;;;;11.02;71.92;96311.47;5052405;28;20224;-71
2022/04/07 07:18:18;;;;;;;0.40;0.40;;;;;;;11.07;70.56;96303.50;5052494;28;20237;-70
2022/04/07 07:20:45;;;;;;;0.30;0.30;;;;;;;11.06;71.30;96283.28;5052287;28;20224;-70
2022/04/07 07:23:11;;;;;;;0.30;0.30;;;;;;;11.05;70.93;96292.34;5052171;28;20213;-71
2022/04/07 07:25:37;;;;;;;0.97;0.40;;;;;;;11.10;72.40;96290.44;5052351;28;20198;-71
2022/04/07 07:28:05;;;;;;;0.43;0.30;;;;;;;11.09;70.51;96288.09;5052372;28;20225;-71
2022/04/07 07:30:31;;;;;;;0.67;0.40;;;;;;;11.17;70.37;96273.47;5052305;28;20216;-71
2022/04/07 07:32:58;;;;;;;1.33;0.50;;;;;;;11.27;69.71;96274.25;5052745;28;20201;-71
2022/04/07 07:35:25;;;;;;;2.20;0.40;;;;;;;11.25;70.17;96255.09;5052436;28;20232;-70
2022/04/07 07:37:56;;;;;;;1.27;0.40;;;;;;;11.40;69.86;96278.25;5052668;28;20234;-71
2022/04/07 07:40:25;;;;;;;0.83;0.30;;;;;;;11.43;69.69;96267.84;5053031;28;20197;-71
2022/04/07 07:42:54;;;;;;;1.07;0.40;;;;;;;11.53;68.57;96265.19;5052402;28;20209;-71
2022/04/07 07:45:21;;;;;;;0.40;0.40;;;;;;;11.67;68.49;96266.25;5052438;28;20206;-71
2022/04/07 07:47:47;;;;;;;1.17;0.57;;;;;;;11.69;68.63;96260.69;5052240;28;20731;-71
2022/04/07 07:50:14;;;;;;;0.60;0.30;;;;;;;11.77;68.14;96254.81;5052119;28;20667;-71
2022/04/07 07:52:40;;;;;;;3.07;0.57;;;;;;;11.83;68.45;96243.88;5052048;28;20571;-71
2022/04/07 07:55:08;;;;;;;1.83;0.50;;;;;;;11.90;67.39;96252.41;5052085;28;20726;-70
2022/04/07 07:57:34;;;;;;;1.30;0.40;;;;;;;11.90;67.69;96236.41;5052303;28;20229;-70
2022/04/07 08:00:01;;;;;;;0.80;0.50;;;;;;;11.79;67.75;96234.84;5054076;28;20297;-71
2022/04/07 08:02:27;;;;;;;1.17;0.50;;;;;;;11.78;67.89;96232.44;5055997;28;20214;-70
2022/04/07 08:04:54;;;;;;;0.30;0.30;;;;;;;11.77;67.60;96218.34;5056030;28;20248;-71
2022/04/07 08:07:21;;;;;;;1.07;0.50;;;;;;;11.78;67.62;96235.91;5055835;28;20229;-71
2022/04/07 08:09:48;;;;;;;0.37;0.30;;;;;;;11.74;68.23;96223.41;5055976;28;20287;-70
2022/04/07 08:12:14;;;;;;;1.33;0.40;;;;;;;11.75;68.60;96211.69;5073468;28;20206;-70
2022/04/07 08:14:41;;;;;;;0.70;0.50;;;;;;;11.87;67.49;96207.66;5075705;28;20201;-70
2022/04/07 08:17:07;;;;;;;2.07;0.40;;;;;;;11.94;66.95;96194.84;5075435;28;20225;-71
2022/04/07 08:19:35;;;;;;;0.53;0.40;;;;;;;12.00;66.63;96200.97;5075543;28;20220;-71
2022/04/07 08:22:02;;;;;;;1.70;0.50;;;;;;;12.05;67.63;96193.75;5075835;28;20205;-71
2022/04/07 08:24:28;;;;;;;1.60;0.60;;;;;;;12.06;67.43;96198.00;5075833;28;20209;-71
2022/04/07 08:26:55;;;;;;;3.03;0.70;;;;;;;12.20;65.97;96182.25;5075590;28;20221;-71
2022/04/07 08:29:22;;;;;;;0.97;0.43;;;;;;;12.22;65.86;96186.22;5075232;28;20228;-71
2022/04/07 08:31:51;;;;;;;1.30;0.70;;;;;;;12.30;66.74;96190.19;5075537;28;20205;-71
2022/04/07 08:34:18;;;;;;;2.93;0.63;;;;;;;12.27;65.30;96198.72;5075507;28;20200;-71
2022/04/07 08:36:45;;;;;;;0.50;0.50;;;;;;;12.27;65.50;96198.72;5075161;28;20228;-71
2022/04/07 08:39:11;;;;;;;0.70;0.40;;;;;;;12.18;65.46;96171.84;5075200;28;20204;-71
2022/04/07 08:41:39;;;;;;;0.70;0.60;;;;;;;12.09;68.97;96176.16;5075350;28;20208;-70
2022/04/07 08:44:06;;;;;;;0.97;0.43;;;;;;;12.04;68.60;96173.53;5074078;28;20207;-70
2022/04/07 08:46:34;;;;;;;0.80;0.50;;;;;;;12.13;66.44;96176.41;5075856;28;20247;-70
2022/04/07 08:49:03;;;;;;;0.77;0.47;;;;;;;12.26;66.59;96165.16;5075355;28;20220;-70
2022/04/07 08:51:31;;;;;;;2.53;0.53;;;;;;;12.34;67.21;96157.38;5075172;28;20209;-70
2022/04/07 08:53:58;;;;;;;3.00;0.57;;;;;;;12.38;64.46;96150.41;5074986;28;20196;-70
2022/04/07 08:56:25;;;;;;;2.47;0.40;;;;;;;12.43;64.65;96138.94;5074882;28;20312;-71
2022/04/07 08:58:53;;;;;;;0.80;0.40;;;;;;;12.46;63.96;96127.72;5075104;28;20211;-70
2022/04/07 09:01:20;;;;;;;0.47;0.40;;;;;;;12.42;66.34;96106.16;5074705;28;20208;-70
2022/04/07 09:03:46;;;;;;;0.43;0.33;;;;;;;12.46;63.97;96115.19;5075109;28;20574;-70
2022/04/07 09:06:16;;;;;;;0.97;0.50;;;;;;;12.47;64.99;96118.66;5074762;28;20229;-70
2022/04/07 09:08:43;;;;;;;0.67;0.40;;;;;;;12.46;64.03;96125.84;5074253;28;20233;-70
2022/04/07 09:11:11;;;;;;;2.73;0.67;;;;;;;12.57;62.45;96124.69;5074484;28;20208;-69
2022/04/07 09:13:44;;;;;;;0.77;0.33;;;;;;;12.62;62.48;96138.00;5075418;28;20208;-69
2022/04/07 09:16:13;;;;;;;0.73;0.47;;;;;;;12.62;62.40;96121.22;5074763;28;20213;-70
2022/04/07 09:18:41;;;;;;;1.07;0.30;;;;;;;12.65;62.88;96128.63;5074256;28;20205;-70
2022/04/07 09:21:16;;;;;;;1.37;0.50;;;;;;;12.64;62.39;96113.72;5073855;28;20213;-70
2022/04/07 09:23:43;;;;;;;1.00;0.30;;;;;;;12.67;61.45;96106.00;5074469;28;20195;-70
2022/04/07 09:26:13;;;;;;;1.30;0.40;;;;;;;12.66;62.36;96123.03;5074173;28;20240;-70
2022/04/07 09:28:40;;;;;;;1.10;0.30;;;;;;;12.57;63.07;96110.59;5074401;28;20206;-69
2022/04/07 09:31:07;;;;;;;1.50;0.37;;;;;;;12.49;63.77;96127.97;5075134;28;20201;-70
2022/04/07 09:33:34;;;;;;;0.30;0.30;;;;;;;12.43;64.64;96110.41;5074039;28;20660;-69
2022/04/07 09:36:10;;;;;;;1.70;0.40;;;;;;;12.42;64.39;96108.03;5074631;28;20229;-69
2022/04/07 09:38:37;;;;;;;0.73;0.30;;;;;;;12.22;67.32;96111.63;5074401;28;20270;-70
2022/04/07 09:41:04;;;;;;;1.40;0.43;;;;;;;12.03;68.31;96110.66;5074889;28;20208;-71
2022/04/07 09:43:31;;;;;;;1.80;1.00;;;;;;;11.73;75.89;96110.81;5073704;28;20208;-70
2022/04/07 09:45:58;;;;;;;0.97;0.40;;;;;;;11.80;73.65;96113.97;5074109;28;20205;-70
2022/04/07 09:48:27;;;;;;;0.40;0.37;;;;;;;11.93;70.25;96100.06;5074145;28;20228;-70
2022/04/07 09:51:04;;;;;;;0.40;0.40;;;;;;;12.10;69.09;96105.84;5073773;28;20204;-71
2022/04/07 09:53:40;;;;;;;0.40;0.40;;;;;;;12.32;71.04;96084.91;5073793;28;20271;-71
2022/04/07 09:56:08;;;;;;;0.30;0.30;;;;;;;12.43;68.04;96078.44;5074192;28;20209;-70
2022/04/07 09:58:36;;;;;;;0.30;0.30;;;;;;;12.54;68.21;96074.63;5073476;28;20741;-71
2022/04/07 10:01:03;;;;;;;0.43;0.40;;;;;;;12.72;66.76;96067.81;5073827;28;20212;-70
2022/04/07 10:03:31;;;;;;;0.70;0.40;;;;;;;12.90;67.43;96059.13;5073469;28;20219;-70
2022/04/07 10:05:59;;;;;;;2.83;0.40;;;;;;;12.86;65.35;96048.22;5073089;28;20561;-71
2022/04/07 10:08:27;;;;;;;0.40;0.40;;;;;;;12.91;65.06;96060.69;5073256;28;20230;-70
2022/04/07 10:10:55;;;;;;;0.67;0.40;;;;;;;12.95;64.22;96048.41;5073408;28;20212;-70
2022/04/07 10:13:21;;;;;;;0.30;0.30;;;;;;;13.02;63.70;96046.25;5073193;28;20209;-70
2022/04/07 10:15:48;;;;;;;0.60;0.50;;;;;;;13.18;63.95;96039.66;5073446;28;20560;-70
2022/04/07 10:18:20;;;;;;;0.40;0.40;;;;;;;13.31;62.53;96046.97;5073204;28;20227;-70
2022/04/07 10:20:50;;;;;;;1.60;0.40;;;;;;;13.41;61.94;96007.63;5073409;28;20195;-70
2022/04/07 10:23:48;;;;;;;0.30;0.30;;;;;;;13.45;61.65;96005.19;5071849;28;20306;-70
2022/04/07 10:26:16;;;;;;;0.30;0.30;;;;;;;13.55;62.43;96018.38;5072267;28;20199;-69
2022/04/07 10:28:43;;;;;;;0.40;0.40;;;;;;;13.66;60.64;96001.94;5073272;28;20211;-69
2022/04/07 10:31:15;;;;;;;0.40;0.40;;;;;;;13.63;61.59;96010.56;5073512;28;20204;-70
2022/04/07 10:33:44;;;;;;;0.30;0.30;;;;;;;13.82;60.57;95991.84;5073294;28;20212;-69
2022/04/07 10:36:17;;;;;;;0.40;0.30;;;;;;;13.83;60.30;95998.81;5071289;28;20224;-69
2022/04/07 10:38:46;;;;;;;1.30;0.57;;;;;;;13.77;60.27;96006.09;5073177;28;20238;-69
2022/04/07 10:41:32;;;;;;;0.30;0.30;;;;;;;13.97;60.56;95995.09;5072803;28;20228;-69
2022/04/07 10:44:11;;;;;;;0.43;0.37;;;;;;;13.93;60.45;95991.41;5072730;28;20205;-69
2022/04/07 10:46:37;;;;;;;1.80;0.50;;;;;;;13.67;60.89;95984.06;5072687;28;20678;-68
2022/04/07 10:49:06;;;;;;;0.93;0.40;;;;;;;13.55;60.46;95991.69;5073311;28;20204;-69
2022/04/07 10:51:47;;;;;;;0.30;0.30;;;;;;;13.57;60.72;95968.19;5072863;28;20219;-69
2022/04/07 10:54:14;;;;;;;0.30;0.30;;;;;;;13.73;61.06;95977.56;5072884;28;20666;-70
2022/04/07 10:56:48;;;;;;;0.67;0.40;;;;;;;14.04;62.79;95958.16;5072506;28;20595;-69
2022/04/07 10:59:23;;;;;;;3.33;0.57;;;;;;;14.00;60.53;95969.69;5073372;28;20272;-69
2022/04/07 11:02:05;;;;;;;1.40;0.40;;;;;;;13.90;60.33;95959.97;5073011;28;20284;-68
2022/04/07 11:04:44;;;;;;;0.77;0.40;;;;;;;14.00;60.44;95959.81;5072614;28;20226;-69
2022/04/07 11:07:13;;;;;;;1.87;0.30;;;;;;;13.86;60.88;95942.94;5073443;28;20224;-69
2022/04/07 11:09:49;;;;;;;0.83;0.40;;;;;;;13.81;61.76;95939.53;5072682;28;20208;-69
2022/04/07 11:12:19;;;;;;;0.77;0.40;;;;;;;14.17;60.14;95943.25;5072860;28;20212;-69
2022/04/07 11:14:47;;;;;;;0.57;0.37;;;;;;;14.33;58.74;95950.75;5073810;28;20208;-68
2022/04/07 11:17:38;;;;;;;0.37;0.30;;;;;;;14.49;58.75;95949.41;5072867;28;20232;-69
2022/04/07 11:20:24;;;;;;;0.57;0.40;;;;;;;14.51;58.64;95941.88;5069495;28;20208;-69
2022/04/07 11:22:54;;;;;;;3.60;0.50;;;;;;;14.33;58.68;95932.03;5072859;28;20193;-69
2022/04/07 11:25:26;;;;;;;0.30;0.30;;;;;;;13.96;58.68;95934.75;5072076;28;20742;-69
2022/04/07 11:28:09;;;;;;;1.60;0.33;;;;;;;13.92;59.39;95938.28;5071958;28;20224;-69
2022/04/07 11:30:38;;;;;;;0.33;0.30;;;;;;;14.16;58.96;95950.44;5072545;28;20231;-68
2022/04/07 11:33:19;;;;;;;0.30;0.30;;;;;;;14.12;58.87;95919.28;5072527;28;20671;-69
2022/04/07 11:36:02;;;;;;;0.50;0.50;;;;;;;14.15;58.89;95943.53;5075376;28;20239;-69
2022/04/07 11:38:37;;;;;;;1.20;0.40;;;;;;;14.28;58.84;95942.81;5076462;28;20224;-69
2022/04/07 11:41:08;;;;;;;0.40;0.40;;;;;;;14.16;59.04;95958.47;5076412;28;20299;-69